Bookmark and Share
Track history (hours):
 

Tzoanna Vi

Last reported at 2014-Apr-23 21:11 UTC. Time now 2014-Apr-24 20:10 UTC.
Position N 37°53' E 024°35'.

Length 84 m; draft 5.3 m.

Type: Cargo ship. MMSI: 237991700.

NotesDate/timePositionNaut miles runAvg speedWind from/ knotsBaromVisibWave heightAir tempDewpointWater temp
2014-Apr-23 21:11N 37°53' E 024°35'13 8.1
2014-Apr-23 19:33N 37°40' E 024°33'9 8.5
2014-Apr-23 18:31N 37°31' E 024°32'8 8.4
2014-Apr-23 17:33N 37°23' E 024°30'9 8.4
2014-Apr-23 16:27N 37°15' E 024°26'8 8.5
2014-Apr-23 15:33N 37°07' E 024°23'9 8.6
2014-Apr-23 14:33N 36°59' E 024°22'9 8.6
2014-Apr-23 13:33N 36°50' E 024°20'11 8.5
2014-Apr-23 12:17N 36°40' E 024°18'3 4.0
2014-Apr-23 11:33N 36°39' E 024°21'0 0.1
2014-Apr-23 10:33N 36°39' E 024°21'0 0.0
2014-Apr-23 09:33N 36°39' E 024°21'0 0.0
2014-Apr-23 08:32N 36°39' E 024°21'0 0.0
2014-Apr-23 07:31N 36°39' E 024°21'0 0.1
2014-Apr-23 06:33N 36°39' E 024°21'0 0.2
2014-Apr-23 05:33N 36°39' E 024°21'4 3.5
2014-Apr-23 04:24N 36°42' E 024°18'910.4
2014-Apr-23 03:33N 36°51' E 024°19'1010.2
2014-Apr-23 02:33N 37°01' E 024°22'1510.1
2014-Apr-23 01:04N 37°15' E 024°26'510.1
2014-Apr-23 00:32N 37°20' E 024°29'1010.1
2014-Apr-22 23:33N 37°30' E 024°32'1010.1
2014-Apr-22 22:33N 37°40' E 024°33'1210.1
2014-Apr-22 21:23N 37°52' E 024°35'  
2014-Apr-15 02:34N 37°38' E 024°37'9 8.7
2014-Apr-15 01:33N 37°29' E 024°40'9 8.7
2014-Apr-15 00:33N 37°21' E 024°43'9 8.9
2014-Apr-14 23:33N 37°12' E 024°46'9 8.7
2014-Apr-14 22:33N 37°04' E 024°49'9 8.6
2014-Apr-14 21:33N 36°55' E 024°52'9 8.7
2014-Apr-14 20:33N 36°47' E 024°55'9 8.6
2014-Apr-14 19:32N 36°39' E 024°58'8 8.5
2014-Apr-14 18:33N 36°31' E 025°03'9 8.7
2014-Apr-14 17:34N 36°24' E 025°09'8 8.3
2014-Apr-14 16:33N 36°17' E 025°14'8 8.6
2014-Apr-14 15:34N 36°09' E 025°19'9 8.8
2014-Apr-14 14:33N 36°02' E 025°24'9 8.8
2014-Apr-14 13:33N 35°54' E 025°29'  

Dump ship's entire track history

sailing weather and tide predictions

Tzoanna Vi — SYHY — position and weather